Time;durP1;ratioP1;P1;durP2;ratioP2;P2;SDS_P1;SDS_P2;PMS_P1;PMS_P2;Temp;Humidity;BMP_temperature;BMP_pressure;BME280_temperature;BME280_humidity;BME280_pressure;Samples;Min_cycle;Max_cycle;Signal;HPM_P1;HPM_P2
2021/09/19 00:02:27;;;;;;;;;2.00;2.00;;;;;18.70;54.02;98135.28;4904761;28;103200;-91
2021/09/19 00:04:56;;;;;;;;;2.00;2.00;;;;;18.66;54.24;98142.41;4906405;28;103024;-92
2021/09/19 00:07:24;;;;;;;;;2.00;2.00;;;;;18.65;53.52;98143.47;4877800;28;104019;-91
2021/09/19 00:09:51;;;;;;;;;2.33;2.33;;;;;18.62;53.86;98144.00;4894517;28;102683;-92
2021/09/19 00:12:20;;;;;;;;;1.67;1.67;;;;;18.61;53.52;98142.34;4916261;28;102676;-92
2021/09/19 00:14:47;;;;;;;;;2.33;2.33;;;;;18.64;53.65;98141.81;4908786;28;103799;-92
2021/09/19 00:17:17;;;;;;;;;3.00;3.00;;;;;18.63;53.66;98142.09;4930103;28;104490;-90
2021/09/19 00:19:45;;;;;;;;;1.67;1.67;;;;;18.66;52.94;98152.53;4922495;28;102214;-90
2021/09/19 00:22:12;;;;;;;;;0.67;0.33;;;;;18.61;53.58;98145.09;4922251;28;104206;-90
2021/09/19 00:24:39;;;;;;;;;2.67;2.67;;;;;18.61;53.43;98147.84;4936226;28;102601;-90
2021/09/19 00:27:08;;;;;;;;;2.00;2.00;;;;;18.61;53.10;98147.84;4915557;28;103361;-90
2021/09/19 00:29:36;;;;;;;;;3.33;3.33;;;;;18.57;53.42;98159.56;4925455;28;102563;-90
2021/09/19 00:32:04;;;;;;;;;1.67;1.00;;;;;18.56;52.89;98142.31;4922436;28;102657;-90
2021/09/19 00:34:31;;;;;;;;;3.33;2.67;;;;;18.59;53.47;98149.19;4929706;28;103275;-90
2021/09/19 00:36:58;;;;;;;;;3.00;2.33;;;;;18.57;53.45;98154.94;4930558;28;108703;-90
2021/09/19 00:39:25;;;;;;;;;3.67;2.67;;;;;18.59;53.14;98147.28;4908775;28;102656;-90
2021/09/19 00:41:53;;;;;;;;;3.00;2.67;;;;;18.56;53.30;98145.06;4921443;28;102436;-90
2021/09/19 00:44:24;;;;;;;;;5.00;4.00;;;;;18.57;53.01;98143.97;4936990;28;103268;-90
2021/09/19 00:46:52;;;;;;;;;3.33;3.33;;;;;18.57;53.31;98143.97;4913181;28;104553;-90
2021/09/19 00:49:19;;;;;;;;;2.33;2.33;;;;;18.55;53.01;98148.06;4923760;28;102740;-90
2021/09/19 00:51:46;;;;;;;;;3.67;2.67;;;;;18.53;53.16;98140.13;4922955;28;105886;-90
2021/09/19 00:54:13;;;;;;;;;4.33;4.33;;;;;18.51;53.05;98152.38;4923482;28;103851;-89
2021/09/19 00:56:41;;;;;;;;;4.33;3.67;;;;;18.50;53.10;98148.00;4924107;28;104322;-90
2021/09/19 00:59:09;;;;;;;;;3.67;3.67;;;;;18.51;53.10;98152.38;4916131;28;102086;-90
2021/09/19 01:01:36;;;;;;;;;3.00;3.00;;;;;18.50;52.89;98146.09;4903586;28;102357;-90
2021/09/19 01:04:05;;;;;;;;;5.33;4.00;;;;;18.52;52.85;98149.38;4887787;28;102952;-90
2021/09/19 01:06:32;;;;;;;;;4.33;3.67;;;;;18.49;53.01;98149.91;4900032;28;104100;-90
2021/09/19 01:09:00;;;;;;;;;5.33;3.67;;;;;18.49;52.50;98149.91;4905697;28;102522;-89
2021/09/19 01:11:27;;;;;;;;;3.67;3.67;;;;;18.46;53.04;98152.38;4906416;28;111063;-90
2021/09/19 01:13:55;;;;;;;;;4.67;4.67;;;;;18.47;52.45;98156.72;4924661;28;102522;-90
2021/09/19 01:16:22;;;;;;;;;4.33;3.67;;;;;18.46;52.64;98161.38;4946586;28;104146;-91
2021/09/19 01:18:51;;;;;;;;;4.00;3.33;;;;;18.48;52.96;98158.38;4925819;28;102443;-91
2021/09/19 01:21:18;;;;;;;;;2.67;2.67;;;;;18.46;53.00;98166.06;4916509;28;105044;-91
2021/09/19 01:23:58;;;;;;;;;4.67;4.67;;;;;18.43;52.59;98161.91;4917664;28;102626;-90
2021/09/19 01:26:26;;;;;;;;;4.00;4.00;;;;;18.43;52.47;98167.38;4921319;28;104280;-91
2021/09/19 01:28:53;;;;;;;;;4.67;4.00;;;;;18.43;52.49;98166.56;4916295;28;104622;-91
2021/09/19 01:31:21;;;;;;;;;4.00;4.00;;;;;18.43;52.31;98170.13;4919122;28;102435;-91
2021/09/19 01:33:48;;;;;;;;;3.67;3.67;;;;;18.45;52.27;98165.22;4913406;28;103693;-90
2021/09/19 01:36:16;;;;;;;;;3.67;3.67;;;;;18.41;52.58;98169.56;4930579;28;104583;-91
2021/09/19 01:38:43;;;;;;;;;3.33;3.33;;;;;18.43;52.58;98170.13;4909287;28;102148;-91
2021/09/19 01:41:16;;;;;;;;;3.00;3.00;;;;;18.40;52.43;98162.44;4920786;28;103606;-91
2021/09/19 01:43:49;;;;;;;;;4.67;4.67;;;;;18.37;52.36;98162.94;4916053;28;102739;-91
2021/09/19 01:46:17;;;;;;;;;3.67;3.67;;;;;18.36;51.93;98161.31;4892355;28;103976;-92
2021/09/19 01:48:45;;;;;;;;;4.33;4.00;;;;;18.36;52.36;98165.97;4881051;28;102447;-91
2021/09/19 01:51:12;;;;;;;;;3.67;3.00;;;;;18.35;52.34;98175.25;4895948;28;103156;-92
2021/09/19 01:53:39;;;;;;;;;4.33;3.33;;;;;18.33;52.21;98171.97;4871367;28;102553;-92
2021/09/19 01:56:07;;;;;;;;;4.67;4.00;;;;;18.33;51.83;98186.44;4865847;28;104043;-92
2021/09/19 01:58:48;;;;;;;;;3.67;3.67;;;;;18.32;52.09;98182.09;4901448;28;102901;-92
2021/09/19 02:01:17;;;;;;;;;3.00;2.67;;;;;18.33;52.30;98180.97;4897488;28;102504;-92
2021/09/19 02:03:45;;;;;;;;;3.33;3.33;;;;;18.31;51.67;98185.91;4888186;28;102595;-92
2021/09/19 02:06:12;;;;;;;;;4.00;4.00;;;;;18.34;51.92;98190.84;4903322;28;104104;-91
2021/09/19 02:08:40;;;;;;;;;4.00;4.00;;;;;18.29;51.58;98188.06;4881842;28;102717;-92
2021/09/19 02:11:08;;;;;;;;;5.00;4.00;;;;;18.28;51.43;98180.97;4896800;28;103847;-92
2021/09/19 02:13:36;;;;;;;;;2.67;2.67;;;;;18.32;51.52;98192.22;4900974;28;103405;-92
2021/09/19 02:16:04;;;;;;;;;2.67;2.67;;;;;18.31;51.19;98196.84;4899954;28;104616;-92
2021/09/19 02:18:31;;;;;;;;;3.00;3.00;;;;;18.30;51.51;98189.72;4899994;28;102730;-91
2021/09/19 02:20:59;;;;;;;;;3.00;3.00;;;;;18.28;51.63;98203.66;4890384;28;105134;-91
2021/09/19 02:23:26;;;;;;;;;3.00;3.00;;;;;18.31;50.68;98201.50;4886982;28;102162;-91
2021/09/19 02:25:53;;;;;;;;;5.00;4.00;;;;;18.26;50.96;98202.28;4889008;28;104409;-92
2021/09/19 02:28:20;;;;;;;;;3.00;3.00;;;;;18.24;51.29;98210.75;4873382;28;103526;-92
2021/09/19 02:30:47;;;;;;;;;4.00;3.33;;;;;18.24;51.03;98204.44;4893217;28;102704;-91
2021/09/19 02:33:14;;;;;;;;;4.33;3.33;;;;;18.22;50.70;98204.72;4899636;28;103621;-92
2021/09/19 02:35:41;;;;;;;;;5.00;4.00;;;;;18.17;51.31;98209.31;4890577;28;104105;-92
2021/09/19 02:38:09;;;;;;;;;3.67;3.67;;;;;18.17;51.21;98190.97;4896294;28;102461;-92
2021/09/19 02:40:36;;;;;;;;;4.00;4.00;;;;;18.15;50.77;98203.25;4893543;28;102487;-91
2021/09/19 02:43:03;;;;;;;;;5.00;3.67;;;;;18.18;50.93;98197.28;4908142;28;103224;-92
2021/09/19 02:45:30;;;;;;;;;2.33;2.33;;;;;18.18;50.23;98200.03;4905511;28;110639;-91
2021/09/19 02:48:01;;;;;;;;;4.00;4.00;;;;;18.17;50.96;98201.09;4911325;28;102819;-92
2021/09/19 02:50:28;;;;;;;;;3.67;3.67;;;;;18.18;50.81;98200.03;4932386;28;102307;-92
2021/09/19 02:52:55;;;;;;;;;5.00;3.00;;;;;18.19;50.21;98202.47;4932324;28;107758;-92
2021/09/19 02:55:22;;;;;;;;;6.00;4.33;;;;;18.17;50.38;98206.56;4928080;28;104815;-92
2021/09/19 02:57:50;;;;;;;;;4.00;3.67;;;;;18.12;50.52;98203.78;4916782;28;103407;-92
2021/09/19 03:00:19;;;;;;;;;5.00;4.67;;;;;18.09;49.86;98204.31;4928918;28;102082;-92
2021/09/19 03:02:48;;;;;;;;;5.00;5.00;;;;;18.05;50.01;98208.66;4913334;28;103080;-92
2021/09/19 03:05:16;;;;;;;;;3.67;3.00;;;;;18.06;50.60;98205.63;4921300;28;104216;-92
2021/09/19 03:07:44;;;;;;;;;5.00;4.33;;;;;18.05;50.53;98211.38;4911360;28;102595;-92
2021/09/19 03:10:11;;;;;;;;;4.00;3.33;;;;;18.04;49.96;98209.72;4934711;28;102692;-92
2021/09/19 03:12:39;;;;;;;;;4.33;4.33;;;;;18.02;50.10;98201.78;4925261;28;103349;-92
2021/09/19 03:15:12;;;;;;;;;5.33;4.00;;;;;18.03;49.94;98199.88;4827165;28;103251;-91
2021/09/19 03:17:41;;;;;;;;;3.00;3.00;;;;;18.06;49.74;98204.81;4856892;28;102472;-91
2021/09/19 03:20:11;;;;;;;;;4.33;4.33;;;;;18.05;49.48;98203.19;4913188;28;102092;-92
2021/09/19 03:22:44;;;;;;;;;4.67;4.67;;;;;18.06;50.57;98199.34;4850414;28;102790;-92
2021/09/19 03:25:26;;;;;;;;;3.67;3.67;;;;;18.00;50.43;98206.69;4869115;28;104426;-92
2021/09/19 03:28:02;;;;;;;;;5.67;5.00;;;;;17.99;50.31;98205.03;4846877;28;102545;-92
2021/09/19 03:30:29;;;;;;;;;5.67;4.33;;;;;18.01;49.18;98213.00;4908085;28;102129;-92
2021/09/19 03:33:01;;;;;;;;;3.67;3.67;;;;;18.01;49.25;98210.25;4851527;28;102529;-92
2021/09/19 03:35:31;;;;;;;;;4.00;4.00;;;;;17.99;49.80;98204.22;4874193;28;108979;-92
2021/09/19 03:38:05;;;;;;;;;4.33;4.33;;;;;17.95;49.56;98208.53;4901038;28;102650;-92
2021/09/19 03:40:38;;;;;;;;;6.00;5.33;;;;;17.91;49.98;98208.25;4845790;28;102677;-92
2021/09/19 03:43:20;;;;;;;;;5.00;5.00;;;;;17.93;49.43;98208.78;4869728;28;102503;-92
2021/09/19 03:45:50;;;;;;;;;5.67;4.67;;;;;17.90;49.73;98206.59;4794878;28;103810;-92
2021/09/19 03:48:33;;;;;;;;;6.00;5.00;;;;;17.92;49.61;98214.53;4876415;28;103032;-92
2021/09/19 03:51:18;;;;;;;;;6.75;5.00;;;;;17.95;49.26;98214.84;4894434;28;102540;-92
2021/09/19 03:53:49;;;;;;;;;6.00;5.00;;;;;17.95;49.57;98214.00;4870162;28;103613;-91
2021/09/19 03:56:19;;;;;;;;;5.00;5.00;;;;;17.89;48.99;98210.41;4872675;28;103192;-91
2021/09/19 03:58:49;;;;;;;;;5.00;5.00;;;;;17.87;49.32;98218.03;4883918;28;102764;-91
2021/09/19 04:01:22;;;;;;;;;4.00;4.00;;;;;17.88;48.98;98210.69;4866727;28;102726;-91
2021/09/19 04:03:59;;;;;;;;;6.00;5.00;;;;;17.85;48.89;98212.00;4918337;28;104257;-91
2021/09/19 04:06:30;;;;;;;;;5.00;5.00;;;;;17.86;49.37;98221.03;4856326;28;104947;-91
2021/09/19 04:09:12;;;;;;;;;5.00;5.00;;;;;17.86;49.57;98215.56;4847786;28;102310;-91
2021/09/19 04:11:56;;;;;;;;;4.00;3.00;;;;;17.87;49.22;98214.47;4874893;28;102447;-91
2021/09/19 04:14:33;;;;;;;;;5.67;5.33;;;;;17.86;49.46;98221.03;4703991;28;102535;-91
2021/09/19 04:17:02;;;;;;;;;4.00;4.00;;;;;17.83;49.20;98222.38;4808059;28;104079;-91
2021/09/19 04:19:44;;;;;;;;;4.00;4.00;;;;;17.84;49.15;98222.09;4823545;28;102323;-91
2021/09/19 04:22:25;;;;;;;;;8.67;5.00;;;;;17.82;48.45;98218.81;4806721;28;104342;-91
2021/09/19 04:24:54;;;;;;;;;5.00;4.00;;;;;17.81;48.53;98222.63;4771397;28;103529;-90
2021/09/19 04:27:34;;;;;;;;;3.00;3.00;;;;;17.82;48.72;98237.97;4818471;28;108856;-90
2021/09/19 04:30:13;;;;;;;;;5.33;4.67;;;;;17.78;49.38;98234.09;4772760;28;102251;-90
2021/09/19 04:32:51;;;;;;;;;6.67;6.00;;;;;17.74;49.04;98234.84;4874829;28;103412;-90
2021/09/19 04:35:29;;;;;;;;;4.33;4.33;;;;;17.73;48.43;98234.03;4823929;28;102939;-90
2021/09/19 04:38:22;;;;;;;;;7.00;5.00;;;;;17.72;49.23;98234.28;4788665;28;109605;-91
2021/09/19 04:40:52;;;;;;;;;5.00;5.00;;;;;17.73;48.63;98239.50;4827868;28;102318;-90
2021/09/19 04:43:34;;;;;;;;;5.00;4.33;;;;;17.72;48.63;98243.31;4819818;28;102261;-91
2021/09/19 04:46:03;;;;;;;;;3.00;3.00;;;;;17.72;48.39;98246.03;4915976;28;103517;-91
2021/09/19 04:48:42;;;;;;;;;4.00;4.00;;;;;17.71;48.41;98247.13;4820957;28;107301;-92
2021/09/19 04:51:09;;;;;;;;;5.00;5.00;;;;;17.74;48.86;98245.78;4819586;28;103163;-91
2021/09/19 04:53:50;;;;;;;;;4.67;4.67;;;;;17.70;48.60;98245.47;4869341;28;102307;-91
2021/09/19 04:56:20;;;;;;;;;5.00;4.00;;;;;17.72;49.00;98250.69;4928287;28;103909;-91
2021/09/19 04:58:49;;;;;;;;;3.67;3.00;;;;;17.71;49.14;98258.06;4894154;28;103568;-92
2021/09/19 05:01:18;;;;;;;;;2.67;2.33;;;;;17.66;48.31;98252.53;4885246;28;104085;-92
2021/09/19 05:03:46;;;;;;;;;4.00;3.67;;;;;17.66;48.30;98255.25;4885465;28;105429;-92
2021/09/19 05:06:15;;;;;;;;;4.67;3.67;;;;;17.64;48.37;98262.91;4854082;28;102216;-92
2021/09/19 05:08:43;;;;;;;;;3.67;3.67;;;;;17.64;48.37;98268.38;4897374;28;103976;-91
2021/09/19 05:11:11;;;;;;;;;4.33;3.00;;;;;17.65;48.50;98264.53;4872296;28;103856;-91
2021/09/19 05:13:41;;;;;;;;;5.00;4.00;;;;;17.63;48.22;98272.19;4891026;28;103108;-91
2021/09/19 05:16:26;;;;;;;;;3.00;2.00;;;;;17.62;48.33;98272.44;4769986;28;102893;-91
2021/09/19 05:18:59;;;;;;;;;3.00;3.00;;;;;17.60;48.95;98272.69;4866425;28;104193;-91
2021/09/19 05:21:42;;;;;;;;;4.00;3.00;;;;;17.61;48.36;98268.88;4868755;28;102393;-91
2021/09/19 05:24:13;;;;;;;;;2.33;2.33;;;;;17.62;48.78;98265.06;4889721;28;102281;-91
2021/09/19 05:26:46;;;;;;;;;3.67;3.67;;;;;17.57;48.92;98267.69;4850842;28;102373;-91
2021/09/19 05:29:16;;;;;;;;;3.00;3.00;;;;;17.55;48.79;98272.59;4814032;28;104271;-91
2021/09/19 05:31:48;;;;;;;;;3.00;2.75;;;;;17.55;48.96;98266.31;4890723;28;104557;-91
2021/09/19 05:34:50;;;;;;;;;4.00;4.00;;;;;17.55;48.75;98258.94;4835551;28;102435;-91
2021/09/19 05:37:33;;;;;;;;;3.67;3.33;;;;;17.56;48.73;98271.50;4826941;28;102682;-91
2021/09/19 05:40:16;;;;;;;;;4.67;4.00;;;;;17.55;48.10;98267.13;4794245;28;107452;-91
2021/09/19 05:43:07;;;;;;;;;2.00;2.00;;;;;17.54;48.81;98267.38;4805468;28;106058;-90
2021/09/19 05:45:34;;;;;;;;;3.00;2.67;;;;;17.55;48.45;98264.41;4882507;28;103829;-91
2021/09/19 05:48:06;;;;;;;;;2.67;2.67;;;;;17.54;48.87;98267.38;4867003;28;102797;-91
2021/09/19 05:50:37;;;;;;;;;3.00;3.00;;;;;17.54;48.65;98270.94;4815709;28;107862;-91
2021/09/19 05:53:08;;;;;;;;;3.00;3.00;;;;;17.55;48.24;98279.97;4783731;28;102878;-91
2021/09/19 05:56:09;;;;;;;;;3.00;3.00;;;;;17.51;49.19;98285.13;4852464;28;102697;-91
2021/09/19 05:58:50;;;;;;;;;3.00;3.00;;;;;17.53;48.13;98288.41;4788128;28;102341;-91
2021/09/19 06:01:35;;;;;;;;;4.00;3.00;;;;;17.51;48.10;98279.66;4712995;28;109374;-91
2021/09/19 06:04:07;;;;;;;;;3.00;2.00;;;;;17.51;48.33;98295.22;4854189;28;102581;-91
2021/09/19 06:06:48;;;;;;;;;2.00;2.00;;;;;17.52;48.83;98288.66;4865441;28;102704;-92
2021/09/19 06:09:30;;;;;;;;;2.67;2.00;;;;;17.48;48.73;98288.34;4820824;28;103087;-91
2021/09/19 06:12:04;;;;;;;;;2.33;2.00;;;;;17.52;48.52;98291.38;4763423;28;102950;-91
2021/09/19 06:14:39;;;;;;;;;3.00;3.00;;;;;17.47;48.92;98289.41;4866796;28;103744;-91
2021/09/19 06:17:21;;;;;;;;;2.00;2.00;;;;;17.49;48.18;98286.44;4769074;28;103726;-91
2021/09/19 06:20:03;;;;;;;;;2.00;2.00;;;;;17.46;48.37;98279.59;4781183;28;102983;-91
2021/09/19 06:22:33;;;;;;;;;3.00;2.00;;;;;17.46;48.90;98273.28;4871253;28;103841;-91
2021/09/19 06:25:02;;;;;;;;;2.67;2.00;;;;;17.47;48.11;98281.22;4904933;28;103726;-91
2021/09/19 06:27:36;;;;;;;;;3.33;3.00;;;;;17.50;48.18;98288.09;4803513;28;102575;-91
2021/09/19 06:30:17;;;;;;;;;3.00;2.33;;;;;17.49;48.79;98281.81;4831816;28;103353;-91
2021/09/19 06:32:46;;;;;;;;;3.00;3.00;;;;;17.44;48.66;98284.47;4814724;28;103999;-90
2021/09/19 06:35:57;;;;;;;;;3.00;3.00;;;;;17.46;48.35;98296.00;4903914;28;102206;-90
2021/09/19 06:38:25;;;;;;;;;3.33;3.33;;;;;17.47;48.91;98288.63;4603998;28;103203;-91
2021/09/19 06:41:16;;;;;;;;;2.00;2.00;;;;;17.44;48.51;98295.41;4730739;28;102754;-91
2021/09/19 06:44:23;;;;;;;;;3.00;3.00;;;;;17.43;49.24;98296.47;4792556;28;108244;-91
2021/09/19 06:46:56;;;;;;;;;2.00;2.00;;;;;17.45;48.31;98308.00;4829830;28;102241;-91
2021/09/19 06:49:24;;;;;;;;;3.00;2.33;;;;;17.42;48.77;98291.28;4896454;28;105713;-91
2021/09/19 06:51:56;;;;;;;;;2.67;2.67;;;;;17.42;48.17;98297.56;4913017;28;103544;-90
2021/09/19 06:54:31;;;;;;;;;4.00;4.00;;;;;17.42;48.73;98287.44;4771599;28;104153;-91
2021/09/19 06:57:00;;;;;;;;;3.00;3.00;;;;;17.47;48.99;98299.56;4883363;28;104259;-91
2021/09/19 06:59:42;;;;;;;;;1.33;1.33;;;;;17.42;48.89;98292.91;4869536;28;102209;-90
2021/09/19 07:02:19;;;;;;;;;3.67;3.67;;;;;17.43;48.21;98299.19;4905064;28;107759;-91
2021/09/19 07:04:52;;;;;;;;;5.00;2.33;;;;;17.42;48.87;98294.84;4881316;28;107931;-91
2021/09/19 07:07:22;;;;;;;;;4.00;3.00;;;;;17.39;48.61;98298.88;4844307;28;102544;-91
2021/09/19 07:09:49;;;;;;;;;3.00;3.00;;;;;17.37;48.90;98305.69;4882261;28;103123;-91
2021/09/19 07:12:17;;;;;;;;;2.33;2.33;;;;;17.36;49.07;98293.94;4889833;28;102503;-91
2021/09/19 07:14:45;;;;;;;;;3.67;2.67;;;;;17.37;48.99;98294.78;4882481;28;104836;-91
2021/09/19 07:17:13;;;;;;;;;2.00;2.00;;;;;17.41;48.53;98301.38;4927543;28;102741;-91
2021/09/19 07:19:41;;;;;;;;;2.67;2.00;;;;;17.43;48.44;98299.19;4877722;28;103217;-92
2021/09/19 07:22:08;;;;;;;;;4.00;3.00;;;;;17.45;48.46;98291.59;4920763;28;102540;-91
2021/09/19 07:24:36;;;;;;;;;4.00;3.00;;;;;17.40;49.17;98300.56;4912182;28;107793;-92
2021/09/19 07:27:04;;;;;;;;;3.00;2.67;;;;;17.41;48.30;98309.59;4912909;28;102571;-91
2021/09/19 07:29:33;;;;;;;;;4.00;3.00;;;;;17.42;48.85;98308.50;4910508;28;102136;-92
2021/09/19 07:32:05;;;;;;;;;3.00;2.67;;;;;17.47;48.44;98311.28;4887114;28;104439;-92
2021/09/19 07:34:34;;;;;;;;;4.00;2.00;;;;;17.44;49.02;98311.81;4919395;28;104092;-91
2021/09/19 07:37:02;;;;;;;;;3.00;2.00;;;;;17.43;49.49;98307.41;4925071;28;102734;-91
2021/09/19 07:39:33;;;;;;;;;4.00;4.00;;;;;17.47;48.96;98310.47;4921166;28;102589;-91
2021/09/19 07:42:03;;;;;;;;;3.00;3.00;;;;;17.48;49.17;98310.22;4932604;28;102292;-91
2021/09/19 07:44:30;;;;;;;;;5.00;4.33;;;;;17.47;49.21;98316.75;4922556;28;104096;-90
2021/09/19 07:46:58;;;;;;;;;3.33;3.33;;;;;17.46;49.34;98315.13;4908060;28;102406;-91
2021/09/19 07:49:25;;;;;;;;;5.00;4.00;;;;;17.39;49.56;98314.47;4923986;28;102506;-91
2021/09/19 07:51:57;;;;;;;;;3.67;3.33;;;;;17.47;48.95;98318.69;4917371;28;102588;-91
2021/09/19 07:54:26;;;;;;;;;3.00;3.00;;;;;17.51;48.93;98312.47;4926279;28;103623;-90
2021/09/19 07:56:53;;;;;;;;;4.00;4.00;;;;;17.49;49.39;98321.97;4885329;28;102467;-91
2021/09/19 07:59:21;;;;;;;;;4.00;4.00;;;;;17.50;49.63;98327.19;4901207;28;102481;-91
2021/09/19 08:01:48;;;;;;;;;5.00;4.00;;;;;17.50;49.51;98326.38;4923368;28;103133;-91
2021/09/19 08:04:15;;;;;;;;;3.00;3.00;;;;;17.49;49.75;98320.06;4912835;28;104066;-91
2021/09/19 08:06:42;;;;;;;;;2.33;2.33;;;;;17.49;49.91;98316.50;4926475;28;103466;-91
2021/09/19 08:09:10;;;;;;;;;5.00;4.75;;;;;17.50;49.60;98310.81;4901041;28;102886;-90
2021/09/19 08:11:37;;;;;;;;;3.00;3.00;;;;;17.52;49.18;98319.56;4934387;28;103850;-89
2021/09/19 08:14:07;;;;;;;;;3.00;3.00;;;;;17.53;49.16;98321.22;4922422;28;108785;-88
2021/09/19 08:16:35;;;;;;;;;3.00;3.00;;;;;17.52;49.08;98319.56;4932258;28;102556;-89
2021/09/19 08:19:03;;;;;;;;;3.33;3.33;;;;;17.51;49.78;98317.94;4921425;28;102344;-90
2021/09/19 08:21:30;;;;;;;;;3.00;3.00;;;;;17.53;49.81;98317.66;4921787;28;102425;-90
2021/09/19 08:23:57;;;;;;;;;2.33;2.00;;;;;17.56;49.31;98319.91;4918381;28;104302;-88
2021/09/19 08:26:24;;;;;;;;;5.33;3.00;;;;;17.57;49.13;98314.16;4927525;28;106123;-90
2021/09/19 08:28:51;;;;;;;;;3.67;2.00;;;;;17.57;49.22;98330.56;4907925;28;104163;-90
2021/09/19 08:31:19;;;;;;;;;3.00;3.00;;;;;17.60;49.53;98319.19;4937066;28;103584;-90
2021/09/19 08:33:54;;;;;;;;;3.00;3.00;;;;;17.62;48.90;98322.47;4935611;28;111734;-90
2021/09/19 08:36:21;;;;;;;;;3.00;3.00;;;;;17.63;49.83;98315.94;4917003;28;102634;-90
2021/09/19 08:38:49;;;;;;;;;3.00;3.00;;;;;17.63;49.72;98309.63;4923594;28;102173;-90
2021/09/19 08:41:16;;;;;;;;;3.00;3.00;;;;;17.61;49.10;98318.06;4932921;28;102149;-90
2021/09/19 08:43:44;;;;;;;;;3.00;3.00;;;;;17.60;49.34;98310.97;4917148;28;104064;-90
2021/09/19 08:46:13;;;;;;;;;3.00;2.00;;;;;17.61;49.46;98312.59;4932141;28;102620;-90
2021/09/19 08:48:40;;;;;;;;;3.00;3.00;;;;;17.65;48.98;98313.75;4912648;28;104861;-90
2021/09/19 08:51:07;;;;;;;;;3.00;3.00;;;;;17.64;48.92;98300.34;4939641;28;102510;-89
2021/09/19 08:53:37;;;;;;;;;4.00;3.00;;;;;17.67;48.96;98314.34;4936742;28;108878;-89
2021/09/19 08:56:04;;;;;;;;;3.00;2.67;;;;;17.66;49.67;98314.59;4926016;28;102716;-89
2021/09/19 08:58:31;;;;;;;;;3.00;3.00;;;;;17.65;49.51;98323.88;4928192;28;102406;-89
2021/09/19 09:00:59;;;;;;;;;3.00;3.00;;;;;17.68;49.23;98313.25;4929563;28;103142;-90
2021/09/19 09:03:28;;;;;;;;;2.33;2.00;;;;;17.68;49.11;98313.25;4930300;28;104247;-89
2021/09/19 09:05:57;;;;;;;;;3.00;3.00;;;;;17.66;49.24;98304.47;4929390;28;102780;-89
2021/09/19 09:08:25;;;;;;;;;3.00;2.00;;;;;17.67;49.72;98314.34;4933142;28;102131;-89
2021/09/19 09:10:55;;;;;;;;;2.00;2.00;;;;;17.66;49.13;98317.31;4918699;28;102539;-89
2021/09/19 09:13:31;;;;;;;;;2.33;2.33;;;;;17.67;49.48;98310.78;4929808;28;103972;-89
2021/09/19 09:16:17;;;;;;;;;3.67;3.67;;;;;17.69;49.63;98304.00;4917571;28;102411;-89
2021/09/19 09:18:52;;;;;;;;;2.33;2.33;;;;;17.67;50.05;98299.84;4922300;28;102175;-89
2021/09/19 09:21:21;;;;;;;;;4.00;4.00;;;;;17.70;49.25;98307.53;4919554;28;103465;-88
2021/09/19 09:23:49;;;;;;;;;2.00;2.00;;;;;17.66;49.11;98306.38;4921797;28;104297;-89
2021/09/19 09:26:28;;;;;;;;;2.00;2.00;;;;;17.75;49.40;98318.53;4920628;28;103667;-94
2021/09/19 09:28:57;;;;;;;;;4.33;2.00;;;;;17.74;49.23;98311.44;4907347;28;102591;-90
2021/09/19 09:31:48;;;;;;;;;3.00;3.00;;;;;17.78;49.20;98316.13;4924789;28;109247;-90
2021/09/19 09:34:17;;;;;;;;;4.00;3.00;;;;;17.77;48.71;98317.22;4932871;28;108917;-91
2021/09/19 09:36:51;;;;;;;;;2.00;2.00;;;;;17.75;48.95;98324.84;4930231;28;102545;-91
2021/09/19 09:39:40;;;;;;;;;3.00;3.00;;;;;17.72;49.51;98322.63;4928092;28;103332;-91
2021/09/19 09:42:10;;;;;;;;;2.00;2.00;;;;;17.76;49.57;98315.56;4930077;28;102558;-91
2021/09/19 09:44:41;;;;;;;;;2.00;2.00;;;;;17.77;49.25;98327.31;4932504;28;108969;-90
2021/09/19 09:47:14;;;;;;;;;3.00;2.00;;;;;17.77;49.19;98321.84;4911031;28;102829;-90
2021/09/19 09:49:51;;;;;;;;;2.67;2.00;;;;;17.77;49.66;98321.84;4917640;28;101562;-91
2021/09/19 09:52:33;;;;;;;;;3.00;2.00;;;;;17.79;48.83;98315.03;4936908;28;103595;-88
2021/09/19 09:55:07;;;;;;;;;2.00;2.00;;;;;17.82;49.19;98313.72;4914524;28;104072;-89
2021/09/19 09:57:34;;;;;;;;;1.00;1.00;;;;;17.87;48.89;98324.72;4943484;28;102290;-89
2021/09/19 11:02:35;;;;;;;;;5.00;4.33;;;;;18.03;49.34;98331.19;4204097;28;104251;-88
2021/09/19 11:05:26;;;;;;;;;3.00;2.67;;;;;18.04;48.50;98341.06;4922958;28;104660;-88
2021/09/19 11:08:10;;;;;;;;;4.33;4.00;;;;;18.04;49.39;98341.91;4917831;28;110842;-89
2021/09/19 11:10:46;;;;;;;;;3.00;3.00;;;;;18.05;49.38;98345.47;4925585;28;102751;-88
2021/09/19 11:13:27;;;;;;;;;4.00;3.33;;;;;18.05;48.58;98349.03;4922877;28;105815;-89
2021/09/19 11:16:03;;;;;;;;;3.00;3.00;;;;;18.02;48.72;98346.78;4925012;28;108007;-89
2021/09/19 11:18:35;;;;;;;;;2.00;2.00;;;;;18.03;49.12;98347.59;4921938;28;103135;-89
2021/09/19 11:21:11;;;;;;;;;4.00;4.00;;;;;18.03;48.55;98347.59;4919224;28;102594;-89
2021/09/19 11:23:42;;;;;;;;;3.33;3.33;;;;;18.03;48.60;98340.22;4921230;28;102426;-89
2021/09/19 11:26:19;;;;;;;;;4.00;3.00;;;;;18.06;48.63;98336.16;4936322;28;108737;-88
2021/09/19 11:28:47;;;;;;;;;3.00;3.00;;;;;18.08;49.27;98339.47;4920140;28;102868;-89
2021/09/19 11:31:15;;;;;;;;;4.00;4.00;;;;;18.08;49.14;98342.19;4918406;28;102434;-89
2021/09/19 11:33:42;;;;;;;;;3.33;3.00;;;;;18.10;49.10;98337.31;4921969;28;103932;-89
2021/09/19 11:36:11;;;;;;;;;3.67;3.33;;;;;18.11;49.01;98337.03;4931670;28;110420;-89
2021/09/19 11:38:42;;;;;;;;;5.00;4.33;;;;;18.11;48.68;98337.03;4933186;28;102810;-89
2021/09/19 11:41:09;;;;;;;;;4.00;3.00;;;;;18.12;48.66;98329.66;4914363;28;104638;-89
2021/09/19 11:43:38;;;;;;;;;3.67;3.33;;;;;18.10;48.93;98331.84;4929487;28;102614;-89
2021/09/19 11:46:09;;;;;;;;;4.33;4.00;;;;;18.09;49.29;98327.44;4932252;28;104045;-88
2021/09/19 11:48:37;;;;;;;;;4.00;4.00;;;;;18.10;49.37;98338.13;4917391;28;102414;-89
2021/09/19 11:51:04;;;;;;;;;4.00;3.00;;;;;18.08;48.81;98334.81;4918511;28;102918;-88
2021/09/19 11:53:32;;;;;;;;;4.00;3.67;;;;;18.11;48.60;98333.47;4923747;28;102211;-89
2021/09/19 11:55:59;;;;;;;;;4.00;4.00;;;;;18.11;48.92;98338.94;4924643;28;103465;-89
2021/09/19 11:58:26;;;;;;;;;5.00;4.00;;;;;18.11;48.78;98333.47;4925661;28;102735;-89
2021/09/19 12:00:55;;;;;;;;;5.00;4.67;;;;;18.11;48.97;98331.56;4919271;28;102696;-90
2021/09/19 12:03:25;;;;;;;;;4.67;4.00;;;;;18.13;48.69;98334.06;4922079;28;103473;-90
2021/09/19 12:06:00;;;;;;;;;4.33;3.67;;;;;18.13;48.58;98336.78;4903203;28;103095;-90
2021/09/19 12:08:33;;;;;;;;;4.00;3.00;;;;;18.14;49.36;98343.94;4903593;28;102613;-90
2021/09/19 12:11:04;;;;;;;;;3.00;2.67;;;;;18.14;48.97;98327.50;4919950;28;104350;-89
2021/09/19 12:17:42;;;;;;;;;4.33;3.00;;;;;18.17;48.49;98333.28;4928913;28;107019;-91
2021/09/19 12:20:12;;;;;;;;;4.33;3.67;;;;;18.18;48.71;98328.66;4920055;28;103709;-91
2021/09/19 12:22:39;;;;;;;;;4.33;4.33;;;;;18.21;50.16;98339.06;4907438;28;102578;-91
2021/09/19 12:25:07;;;;;;;;;5.00;4.67;;;;;18.19;51.14;98336.56;4932461;28;102641;-91
2021/09/19 12:27:42;;;;;;;;;5.00;4.00;;;;;18.18;51.33;98331.38;4909729;28;104010;-91
2021/09/19 12:30:13;;;;;;;;;4.00;4.00;;;;;18.16;51.20;98331.63;4926914;28;103382;-89
2021/09/19 12:32:46;;;;;;;;;6.33;4.00;;;;;18.15;51.87;98320.94;4923372;28;103523;-90
2021/09/19 12:35:15;;;;;;;;;5.00;4.00;;;;;18.14;51.24;98328.34;4929762;28;102752;-90
2021/09/19 12:37:44;;;;;;;;;4.00;4.00;;;;;18.15;51.83;98329.97;4913309;28;108675;-90
2021/09/19 12:40:21;;;;;;;;;3.67;3.67;;;;;18.16;51.85;98326.16;4905547;28;102743;-90
2021/09/19 12:42:49;;;;;;;;;5.00;4.00;;;;;18.17;51.11;98321.50;4922407;28;102317;-91
2021/09/19 12:45:17;;;;;;;;;6.00;6.00;;;;;17.98;49.53;98311.97;4930040;28;102883;-91
2021/09/19 12:47:44;;;;;;;;;5.00;4.00;;;;;18.04;49.66;98311.78;4931572;28;104182;-90
2021/09/19 12:50:14;;;;;;;;;6.00;6.00;;;;;18.07;51.05;98305.81;4938992;28;102550;-91
2021/09/19 12:52:41;;;;;;;;;6.67;6.00;;;;;18.10;50.28;98307.22;4932254;28;102422;-91